Terminal Aerodrome Forecast
Issued by NWS

Home | Current Version | Previous Version | Text Only | Print | Product List | Glossary On
Versions: 1 2 3 4 5 6 7 8 9 10 11 12 13 14 15 16 17 18 19 20 21 22 23 24 25 26 27 28 29 30 31 32
868
FTUS42 KGSP 190539
TAFHKY
TAF
KHKY 190539Z 1906/2006 01003KT P6SM -RA OVC030
     FM190800 04003KT P6SM -SHRA OVC017
     FM191100 06003KT 5SM BR VCSH OVC005
     FM191500 VRB02KT 1 1/2SM -RADZ BR OVC004
     FM191800 VRB02KT P6SM OVC005
     FM191900 VRB02KT P6SM OVC006
     FM192300 VRB02KT 4SM BR BKN005=

USA.gov is the U.S. government's official web portal to all federal, state and local government web resources and services.